Time;durP1;ratioP1;P1;durP2;ratioP2;P2;SDS_P1;SDS_P2;PMS_P1;PMS_P2;Temp;Humidity;BMP_temperature;BMP_pressure;BME280_temperature;BME280_humidity;BME280_pressure;Samples;Min_cycle;Max_cycle;Signal;HPM_P1;HPM_P2
2023/06/07 00:01:27;;;;;;;;;;;18.60;99.90;;;;;;5009005;28;19968;-75
2023/06/07 00:03:54;;;;;;;;;;;18.50;99.90;;;;;;5010029;28;19944;-75
2023/06/07 00:06:21;;;;;;;;;;;18.40;99.90;;;;;;5006901;28;19926;-75
2023/06/07 00:08:49;;;;;;;;;;;18.30;99.90;;;;;;5009831;28;20036;-75
2023/06/07 00:11:16;;;;;;;;;;;18.20;99.90;;;;;;5043026;28;19936;-75
2023/06/07 00:13:44;;;;;;;;;;;18.20;99.90;;;;;;5031387;28;20036;-75
2023/06/07 00:16:12;;;;;;;;;;;18.20;99.90;;;;;;5010812;28;19929;-75
2023/06/07 00:18:40;;;;;;;;;;;18.20;99.90;;;;;;5010401;28;20350;-75
2023/06/07 00:21:09;;;;;;;;;;;18.10;99.90;;;;;;5010963;28;19925;-75
2023/06/07 00:23:36;;;;;;;;;;;18.00;99.90;;;;;;5007709;28;19929;-74
2023/06/07 00:26:04;;;;;;;;;;;17.90;99.90;;;;;;5008909;28;19975;-75
2023/06/07 00:28:30;;;;;;;;;;;17.90;99.90;;;;;;5002429;28;19925;-74
2023/06/07 00:30:57;;;;;;;;;;;17.80;99.90;;;;;;5019051;28;20103;-75
2023/06/07 00:33:25;;;;;;;;;;;17.80;99.90;;;;;;5007903;28;19967;-75
2023/06/07 00:35:52;;;;;;;;;;;17.70;99.90;;;;;;5003988;28;19983;-75
2023/06/07 00:38:20;;;;;;;;;;;17.60;99.90;;;;;;5040976;28;20007;-75
2023/06/07 00:40:47;;;;;;;;;;;17.60;99.90;;;;;;5005375;28;19925;-75
2023/06/07 00:43:15;;;;;;;;;;;17.50;99.90;;;;;;5009746;28;19925;-75
2023/06/07 00:45:42;;;;;;;;;;;17.50;99.90;;;;;;5009410;28;19926;-75
2023/06/07 00:48:09;;;;;;;;;;;17.50;99.90;;;;;;5010480;28;19929;-75
2023/06/07 00:50:36;;;;;;;;;;;17.40;99.90;;;;;;5006618;28;19930;-75
2023/06/07 00:53:03;;;;;;;;;;;17.40;99.90;;;;;;5023720;28;19933;-75
2023/06/07 00:55:30;;;;;;;;;;;17.50;99.90;;;;;;5008045;28;20281;-74
2023/06/07 00:57:57;;;;;;;;;;;17.50;99.90;;;;;;5008323;28;19936;-75
2023/06/07 01:00:25;;;;;;;;;;;17.50;99.90;;;;;;5031236;28;20019;-75
2023/06/07 01:02:55;;;;;;;;;;;17.40;99.90;;;;;;5011275;28;19961;-75
2023/06/07 01:05:22;;;;;;;;;;;17.40;99.90;;;;;;5030377;28;19931;-75
2023/06/07 01:07:54;;;;;;;;;;;17.40;99.90;;;;;;5004992;28;19926;-73
2023/06/07 01:10:21;;;;;;;;;;;17.40;99.90;;;;;;5009846;28;19960;-73
2023/06/07 01:12:49;;;;;;;;;;;17.40;99.90;;;;;;5010157;28;19925;-73
2023/06/07 01:15:17;;;;;;;;;;;17.40;99.90;;;;;;5013702;28;19925;-73
2023/06/07 01:17:45;;;;;;;;;;;17.30;99.90;;;;;;5005241;28;19933;-73
2023/06/07 01:20:13;;;;;;;;;;;17.30;99.90;;;;;;5008345;28;19932;-73
2023/06/07 01:22:43;;;;;;;;;;;17.30;99.90;;;;;;5006767;28;19929;-74
2023/06/07 01:25:12;;;;;;;;;;;17.30;99.90;;;;;;5005596;28;19929;-74
2023/06/07 01:27:41;;;;;;;;;;;17.30;99.90;;;;;;5006817;28;19928;-73
2023/06/07 01:30:09;;;;;;;;;;;17.20;99.90;;;;;;5007522;28;19932;-73
2023/06/07 01:32:37;;;;;;;;;;;17.20;99.90;;;;;;5011327;28;19926;-73
2023/06/07 01:35:04;;;;;;;;;;;17.20;99.90;;;;;;5002135;28;19932;-73
2023/06/07 01:37:32;;;;;;;;;;;17.20;99.90;;;;;;5007868;28;20443;-73
2023/06/07 01:39:59;;;;;;;;;;;17.20;99.90;;;;;;5007595;28;19937;-73
2023/06/07 01:42:29;;;;;;;;;;;17.20;99.90;;;;;;5013547;28;19926;-73
2023/06/07 01:44:56;;;;;;;;;;;17.10;99.90;;;;;;5008619;28;19932;-73
2023/06/07 01:47:23;;;;;;;;;;;17.10;99.90;;;;;;5005323;28;19925;-73
2023/06/07 01:49:50;;;;;;;;;;;17.20;99.90;;;;;;5009525;28;19975;-73
2023/06/07 01:52:17;;;;;;;;;;;17.10;99.90;;;;;;5032185;28;19932;-73
2023/06/07 01:54:46;;;;;;;;;;;17.10;99.90;;;;;;5002841;28;20028;-73
2023/06/07 01:57:17;;;;;;;;;;;17.00;99.90;;;;;;5010305;28;19975;-73
2023/06/07 01:59:50;;;;;;;;;;;17.00;99.90;;;;;;5005402;28;19929;-73
2023/06/07 02:02:18;;;;;;;;;;;17.00;99.90;;;;;;5007352;28;19925;-73
2023/06/07 02:04:48;;;;;;;;;;;16.90;99.90;;;;;;5001855;28;19929;-74
2023/06/07 02:07:17;;;;;;;;;;;16.90;99.90;;;;;;5012653;28;20312;-74
2023/06/07 02:09:45;;;;;;;;;;;16.80;99.90;;;;;;5011081;28;19932;-74
2023/06/07 02:12:12;;;;;;;;;;;16.80;99.90;;;;;;5007452;28;20016;-74
2023/06/07 02:14:39;;;;;;;;;;;16.70;99.90;;;;;;5009942;28;19925;-74
2023/06/07 02:17:08;;;;;;;;;;;16.70;99.90;;;;;;5002751;28;19929;-74
2023/06/07 02:19:37;;;;;;;;;;;16.70;99.90;;;;;;5027703;28;20004;-74
2023/06/07 02:22:04;;;;;;;;;;;16.80;99.90;;;;;;5006676;28;19925;-75
2023/06/07 02:24:31;;;;;;;;;;;16.80;99.90;;;;;;5009210;28;19925;-74
2023/06/07 02:26:58;;;;;;;;;;;16.90;99.90;;;;;;5003745;28;19926;-74
2023/06/07 02:29:25;;;;;;;;;;;16.90;99.90;;;;;;5008423;28;19944;-74
2023/06/07 02:31:52;;;;;;;;;;;16.90;99.90;;;;;;5009630;28;19932;-74
2023/06/07 02:34:21;;;;;;;;;;;16.90;99.90;;;;;;5016276;28;19925;-74
2023/06/07 02:36:48;;;;;;;;;;;16.90;99.90;;;;;;5009109;28;19932;-74
2023/06/07 02:39:15;;;;;;;;;;;16.90;99.90;;;;;;5003352;28;19926;-74
2023/06/07 02:41:44;;;;;;;;;;;16.80;99.90;;;;;;5007015;28;19925;-74
2023/06/07 02:44:11;;;;;;;;;;;16.80;99.90;;;;;;5002409;28;19930;-74
2023/06/07 02:46:38;;;;;;;;;;;16.80;99.90;;;;;;5008079;28;19925;-74
2023/06/07 02:49:05;;;;;;;;;;;16.80;99.90;;;;;;5011124;28;19926;-74
2023/06/07 02:51:33;;;;;;;;;;;16.80;99.90;;;;;;5005413;28;19928;-74
2023/06/07 02:54:01;;;;;;;;;;;16.90;99.90;;;;;;5009536;28;19979;-74
2023/06/07 02:56:29;;;;;;;;;;;16.90;99.90;;;;;;5001608;28;19925;-74
2023/06/07 02:58:56;;;;;;;;;;;16.80;99.90;;;;;;5004677;28;20020;-74
2023/06/07 03:01:27;;;;;;;;;;;16.80;99.90;;;;;;5008555;28;19941;-74
2023/06/07 03:03:55;;;;;;;;;;;16.80;99.90;;;;;;5021621;28;19925;-74
2023/06/07 03:06:22;;;;;;;;;;;16.80;99.90;;;;;;5006561;28;19925;-74
2023/06/07 03:08:50;;;;;;;;;;;16.80;99.90;;;;;;5010979;28;19933;-74
2023/06/07 03:11:22;;;;;;;;;;;16.80;99.90;;;;;;5003614;28;19932;-74
2023/06/07 03:13:50;;;;;;;;;;;16.80;99.90;;;;;;5002439;28;19968;-74
2023/06/07 03:16:23;;;;;;;;;;;16.80;99.90;;;;;;5008811;28;20048;-74
2023/06/07 03:18:55;;;;;;;;;;;16.80;99.90;;;;;;5014193;28;19975;-74
2023/06/07 03:21:23;;;;;;;;;;;16.80;99.90;;;;;;5008338;28;19925;-74
2023/06/07 03:23:53;;;;;;;;;;;16.80;99.90;;;;;;5010714;28;19929;-74
2023/06/07 03:26:21;;;;;;;;;;;16.80;99.90;;;;;;5008001;28;19930;-74
2023/06/07 03:28:48;;;;;;;;;;;16.80;99.90;;;;;;5010984;28;19962;-74
2023/06/07 03:31:17;;;;;;;;;;;16.90;99.90;;;;;;5034909;28;19979;-74
2023/06/07 03:33:52;;;;;;;;;;;16.80;99.90;;;;;;5007461;28;20012;-74
2023/06/07 03:36:20;;;;;;;;;;;16.80;99.90;;;;;;5013430;28;20283;-74
2023/06/07 03:38:48;;;;;;;;;;;16.80;99.90;;;;;;5010091;28;20292;-74
2023/06/07 03:41:17;;;;;;;;;;;16.80;99.90;;;;;;5009133;28;20019;-74
2023/06/07 03:43:44;;;;;;;;;;;16.80;99.90;;;;;;5021307;28;19925;-74
2023/06/07 03:46:11;;;;;;;;;;;16.80;99.90;;;;;;5009733;28;19930;-74
2023/06/07 03:48:38;;;;;;;;;;;16.80;99.90;;;;;;5011173;28;20373;-74
2023/06/07 03:51:07;;;;;;;;;;;16.80;99.90;;;;;;5012866;28;19987;-74
2023/06/07 03:53:34;;;;;;;;;;;16.80;99.90;;;;;;5012572;28;20019;-73
2023/06/07 03:56:01;;;;;;;;;;;16.80;99.90;;;;;;5026872;28;19944;-74
2023/06/07 03:58:33;;;;;;;;;;;16.80;99.90;;;;;;5012164;28;19968;-74
2023/06/07 04:01:07;;;;;;;;;;;16.80;99.90;;;;;;5010233;28;19925;-74
2023/06/07 04:03:34;;;;;;;;;;;16.80;99.90;;;;;;5010927;28;20476;-74
2023/06/07 04:06:05;;;;;;;;;;;16.80;99.90;;;;;;5012265;28;19925;-74
2023/06/07 04:08:33;;;;;;;;;;;16.80;99.90;;;;;;5010256;28;19968;-74
2023/06/07 04:10:59;;;;;;;;;;;16.80;99.90;;;;;;5009746;28;19932;-73
2023/06/07 04:13:26;;;;;;;;;;;16.80;99.90;;;;;;5007415;28;19925;-74
2023/06/07 04:15:54;;;;;;;;;;;16.90;99.90;;;;;;5012642;28;20396;-74
2023/06/07 04:18:21;;;;;;;;;;;16.90;99.90;;;;;;5010001;28;20289;-74
2023/06/07 04:20:51;;;;;;;;;;;16.80;99.90;;;;;;5011003;28;19929;-75
2023/06/07 04:23:18;;;;;;;;;;;16.80;99.90;;;;;;5006830;28;19969;-75
2023/06/07 04:25:46;;;;;;;;;;;16.80;99.90;;;;;;5006162;28;20099;-74
2023/06/07 04:28:14;;;;;;;;;;;16.80;99.90;;;;;;5011456;28;20436;-75
2023/06/07 04:30:42;;;;;;;;;;;16.80;99.90;;;;;;5027682;28;19991;-75
2023/06/07 04:33:13;;;;;;;;;;;16.80;99.90;;;;;;5005121;28;19934;-74
2023/06/07 04:35:43;;;;;;;;;;;16.80;99.90;;;;;;5026053;28;19930;-74
2023/06/07 04:38:12;;;;;;;;;;;16.80;99.90;;;;;;5028654;28;20442;-75
2023/06/07 04:40:42;;;;;;;;;;;16.80;99.90;;;;;;5006996;28;19929;-75
2023/06/07 04:43:12;;;;;;;;;;;16.80;99.90;;;;;;5014373;28;20120;-75
2023/06/07 04:45:41;;;;;;;;;;;16.90;99.90;;;;;;5020928;28;20373;-75
2023/06/07 04:48:11;;;;;;;;;;;16.90;99.90;;;;;;5006011;28;19925;-75
2023/06/07 04:50:41;;;;;;;;;;;17.00;99.90;;;;;;5028680;28;20424;-76
2023/06/07 04:53:08;;;;;;;;;;;17.00;99.90;;;;;;5033238;28;19925;-74
2023/06/07 04:55:37;;;;;;;;;;;17.10;99.90;;;;;;5014205;28;19952;-74
2023/06/07 04:58:06;;;;;;;;;;;17.10;99.90;;;;;;5012335;28;19925;-74
2023/06/07 05:00:38;;;;;;;;;;;17.10;99.90;;;;;;5010430;28;19987;-74
2023/06/07 05:03:13;;;;;;;;;;;17.20;99.90;;;;;;5010338;28;19971;-74
2023/06/07 05:05:40;;;;;;;;;;;17.20;99.90;;;;;;5017054;28;19929;-74
2023/06/07 05:08:07;;;;;;;;;;;17.20;99.90;;;;;;5009671;28;20311;-74
2023/06/07 05:10:34;;;;;;;;;;;17.20;99.90;;;;;;5011750;28;19933;-74
2023/06/07 05:13:03;;;;;;;;;;;17.20;99.90;;;;;;5005616;28;19944;-74
2023/06/07 05:15:31;;;;;;;;;;;17.30;99.90;;;;;;5006278;28;20075;-74
2023/06/07 05:17:58;;;;;;;;;;;17.30;99.90;;;;;;5009732;28;19925;-74
2023/06/07 05:20:27;;;;;;;;;;;17.30;99.90;;;;;;5009140;28;19982;-74
2023/06/07 05:22:57;;;;;;;;;;;17.30;99.90;;;;;;5013689;28;19961;-74
2023/06/07 05:25:24;;;;;;;;;;;17.30;99.90;;;;;;5009965;28;19929;-74
2023/06/07 05:27:52;;;;;;;;;;;17.30;99.90;;;;;;5008908;28;19926;-74
2023/06/07 05:30:19;;;;;;;;;;;17.30;99.90;;;;;;5006308;28;19933;-74
2023/06/07 05:32:48;;;;;;;;;;;17.30;99.90;;;;;;5009833;28;19932;-73
2023/06/07 05:35:15;;;;;;;;;;;17.30;99.90;;;;;;5011020;28;19971;-74
2023/06/07 05:37:48;;;;;;;;;;;17.40;99.90;;;;;;5008529;28;19925;-74
2023/06/07 05:40:17;;;;;;;;;;;17.50;99.90;;;;;;5003922;28;19925;-75
2023/06/07 05:42:45;;;;;;;;;;;17.60;99.90;;;;;;5007164;28;19925;-74
2023/06/07 05:45:12;;;;;;;;;;;17.60;99.90;;;;;;5000566;28;19929;-74
2023/06/07 05:47:40;;;;;;;;;;;17.70;99.90;;;;;;5008637;28;20007;-74
2023/06/07 05:50:10;;;;;;;;;;;17.70;99.90;;;;;;5005091;28;19944;-75
2023/06/07 05:52:37;;;;;;;;;;;17.70;99.90;;;;;;5005045;28;19925;-74
2023/06/07 05:55:06;;;;;;;;;;;17.80;99.90;;;;;;4997753;28;19925;-74
2023/06/07 05:57:32;;;;;;;;;;;17.80;99.90;;;;;;5009013;28;19937;-76
2023/06/07 05:59:59;;;;;;;;;;;17.80;99.90;;;;;;5022140;28;19933;-74
2023/06/07 06:02:29;;;;;;;;;;;17.70;99.90;;;;;;5007637;28;19975;-74
2023/06/07 06:04:56;;;;;;;;;;;17.80;99.90;;;;;;5007136;28;19929;-74
2023/06/07 06:07:23;;;;;;;;;;;17.80;99.90;;;;;;5003188;28;19936;-75
2023/06/07 06:09:50;;;;;;;;;;;17.90;99.90;;;;;;5010246;28;19925;-75
2023/06/07 06:12:18;;;;;;;;;;;17.90;99.90;;;;;;5000648;28;19962;-74
2023/06/07 06:14:45;;;;;;;;;;;17.90;99.90;;;;;;5009319;28;19929;-75
2023/06/07 06:17:12;;;;;;;;;;;17.90;99.90;;;;;;5002793;28;19929;-75
2023/06/07 06:19:38;;;;;;;;;;;18.00;99.90;;;;;;5008565;28;19925;-74
2023/06/07 06:22:05;;;;;;;;;;;18.10;99.90;;;;;;5009361;28;19925;-75
2023/06/07 06:24:32;;;;;;;;;;;18.10;99.90;;;;;;5006528;28;20367;-75
2023/06/07 06:26:59;;;;;;;;;;;18.20;99.90;;;;;;5009313;28;19929;-75
2023/06/07 06:29:27;;;;;;;;;;;18.30;99.90;;;;;;5005244;28;19925;-75
2023/06/07 06:31:55;;;;;;;;;;;18.20;99.90;;;;;;5009055;28;19988;-75
2023/06/07 06:34:22;;;;;;;;;;;18.30;99.90;;;;;;5009401;28;19925;-76
2023/06/07 06:36:49;;;;;;;;;;;18.30;99.90;;;;;;5001422;28;19925;-75
2023/06/07 06:39:16;;;;;;;;;;;18.30;99.90;;;;;;5005750;28;19925;-75
2023/06/07 06:41:43;;;;;;;;;;;18.40;99.90;;;;;;5004231;28;19929;-72
2023/06/07 06:44:18;;;;;;;;;;;18.50;99.90;;;;;;5011450;28;19931;-75
2023/06/07 06:46:48;;;;;;;;;;;18.60;99.90;;;;;;5000081;28;19954;-76
2023/06/07 06:49:15;;;;;;;;;;;18.70;99.90;;;;;;5011317;28;19975;-75
2023/06/07 06:51:42;;;;;;;;;;;18.70;99.90;;;;;;5008154;28;19931;-75
2023/06/07 06:54:09;;;;;;;;;;;18.70;99.90;;;;;;5002436;28;19936;-75
2023/06/07 06:56:36;;;;;;;;;;;18.70;99.90;;;;;;5009006;28;19925;-75
2023/06/07 06:59:03;;;;;;;;;;;18.80;99.90;;;;;;5038931;28;19952;-76
2023/06/07 07:01:42;;;;;;;;;;;18.80;99.90;;;;;;5007856;28;20415;-75
2023/06/07 07:04:11;;;;;;;;;;;18.80;99.90;;;;;;5026384;28;19979;-74
2023/06/07 07:06:38;;;;;;;;;;;18.90;99.90;;;;;;4999517;28;19932;-74
2023/06/07 07:09:05;;;;;;;;;;;19.00;99.90;;;;;;5008495;28;19925;-76
2023/06/07 07:11:33;;;;;;;;;;;19.10;99.90;;;;;;5009433;28;20168;-75
2023/06/07 07:14:00;;;;;;;;;;;19.10;99.90;;;;;;5012440;28;19925;-76
2023/06/07 07:16:27;;;;;;;;;;;19.30;99.90;;;;;;5004740;28;19960;-76
2023/06/07 07:18:54;;;;;;;;;;;19.30;99.90;;;;;;5018635;28;19929;-76
2023/06/07 07:21:22;;;;;;;;;;;19.50;99.90;;;;;;5011256;28;20031;-76
2023/06/07 07:23:49;;;;;;;;;;;19.50;99.90;;;;;;4999996;28;19932;-76
2023/06/07 07:26:15;;;;;;;;;;;19.50;99.90;;;;;;5011847;28;20022;-76
2023/06/07 07:28:42;;;;;;;;;;;19.60;99.90;;;;;;5016347;28;19925;-76
2023/06/07 07:31:10;;;;;;;;;;;19.80;99.90;;;;;;5006561;28;20300;-76
2023/06/07 07:33:38;;;;;;;;;;;19.90;99.90;;;;;;5012782;28;19979;-75
2023/06/07 07:36:05;;;;;;;;;;;20.20;99.90;;;;;;5009895;28;19925;-76
2023/06/07 07:38:37;;;;;;;;;;;20.20;99.90;;;;;;5010488;28;19940;-76
2023/06/07 07:41:04;;;;;;;;;;;20.10;99.90;;;;;;5001852;28;20331;-76
2023/06/07 07:43:31;;;;;;;;;;;20.00;99.90;;;;;;5013549;28;20393;-75
2023/06/07 07:45:57;;;;;;;;;;;19.80;99.90;;;;;;5027937;28;19932;-76
2023/06/07 07:48:24;;;;;;;;;;;19.80;99.90;;;;;;5007006;28;19929;-76
2023/06/07 07:50:51;;;;;;;;;;;19.90;99.90;;;;;;5032201;28;20478;-77
2023/06/07 07:53:18;;;;;;;;;;;19.80;99.90;;;;;;5015144;28;20377;-76
2023/06/07 07:55:47;;;;;;;;;;;19.60;99.90;;;;;;5015739;28;19925;-76
2023/06/07 07:58:13;;;;;;;;;;;19.60;99.90;;;;;;5015453;28;20435;-76
2023/06/07 08:00:40;;;;;;;;;;;19.40;99.90;;;;;;5027424;28;19932;-75
2023/06/07 08:03:07;;;;;;;;;;;19.50;99.90;;;;;;5019070;28;19925;-76
2023/06/07 08:05:34;;;;;;;;;;;19.50;99.90;;;;;;5009615;28;19937;-75
2023/06/07 08:08:02;;;;;;;;;;;19.60;99.90;;;;;;5007309;28;20008;-75
2023/06/07 08:10:29;;;;;;;;;;;19.50;99.90;;;;;;5009635;28;19926;-75
2023/06/07 08:12:57;;;;;;;;;;;19.50;99.90;;;;;;5004480;28;19925;-75
2023/06/07 08:15:24;;;;;;;;;;;19.40;99.90;;;;;;5003343;28;19980;-75
2023/06/07 08:17:51;;;;;;;;;;;19.50;99.90;;;;;;5007893;28;19925;-76
2023/06/07 08:20:18;;;;;;;;;;;19.60;99.90;;;;;;5012540;28;20038;-75
2023/06/07 08:22:45;;;;;;;;;;;19.70;99.90;;;;;;5025820;28;19925;-76
2023/06/07 08:25:12;;;;;;;;;;;19.70;99.90;;;;;;5013846;28;20020;-76
2023/06/07 08:27:38;;;;;;;;;;;19.90;99.90;;;;;;5012905;28;19925;-76
2023/06/07 08:30:08;;;;;;;;;;;19.90;99.90;;;;;;5014892;28;20380;-76
2023/06/07 08:32:34;;;;;;;;;;;19.90;99.90;;;;;;5006382;28;20304;-75
2023/06/07 08:35:01;;;;;;;;;;;19.80;99.90;;;;;;5003253;28;19956;-75
2023/06/07 08:37:28;;;;;;;;;;;19.70;99.90;;;;;;5023741;28;20036;-77
2023/06/07 08:39:55;;;;;;;;;;;19.80;99.90;;;;;;5012774;28;19925;-75
2023/06/07 08:42:21;;;;;;;;;;;20.00;99.90;;;;;;5020052;28;19925;-75
2023/06/07 08:44:48;;;;;;;;;;;20.10;99.90;;;;;;5001214;28;19931;-76
2023/06/07 08:47:17;;;;;;;;;;;20.30;99.90;;;;;;5004713;28;20397;-75
2023/06/07 08:49:44;;;;;;;;;;;20.30;99.90;;;;;;5007805;28;20148;-76
2023/06/07 08:52:11;;;;;;;;;;;20.60;99.90;;;;;;5013899;28;19925;-76
2023/06/07 08:54:41;;;;;;;;;;;20.70;99.90;;;;;;5006050;28;19925;-76
2023/06/07 08:57:09;;;;;;;;;;;21.00;99.90;;;;;;5005039;28;19932;-76
2023/06/07 08:59:36;;;;;;;;;;;21.00;99.90;;;;;;5021997;28;19926;-75
2023/06/07 09:02:03;;;;;;;;;;;21.00;99.90;;;;;;5029453;28;19925;-75
2023/06/07 09:04:33;;;;;;;;;;;21.20;99.90;;;;;;5030773;28;20038;-76
2023/06/07 09:07:01;;;;;;;;;;;21.60;99.90;;;;;;5014734;28;19925;-76
2023/06/07 09:09:28;;;;;;;;;;;21.50;99.90;;;;;;5009842;28;20400;-76
2023/06/07 09:11:55;;;;;;;;;;;21.60;99.90;;;;;;5011015;28;19924;-76
2023/06/07 09:14:22;;;;;;;;;;;21.70;99.90;;;;;;5010689;28;19925;-76
2023/06/07 09:16:53;;;;;;;;;;;21.40;99.90;;;;;;5014110;28;19993;-75
2023/06/07 09:19:30;;;;;;;;;;;21.40;99.90;;;;;;5009849;28;20394;-76
2023/06/07 09:21:58;;;;;;;;;;;21.30;99.90;;;;;;5014645;28;19925;-76
2023/06/07 09:24:26;;;;;;;;;;;21.20;99.90;;;;;;5009358;28;19929;-75
2023/06/07 09:26:54;;;;;;;;;;;21.10;99.90;;;;;;5013481;28;20389;-75
2023/06/07 09:29:21;;;;;;;;;;;20.70;99.90;;;;;;5010684;28;19926;-76
2023/06/07 09:31:48;;;;;;;;;;;20.30;99.90;;;;;;5032870;28;19929;-76
2023/06/07 09:34:21;;;;;;;;;;;20.20;99.90;;;;;;5007288;28;19939;-76
2023/06/07 09:36:49;;;;;;;;;;;20.20;99.90;;;;;;5015759;28;19967;-76
2023/06/07 09:39:21;;;;;;;;;;;20.30;99.90;;;;;;5030584;28;20394;-75
2023/06/07 09:41:48;;;;;;;;;;;20.20;99.90;;;;;;5010002;28;19936;-75
2023/06/07 09:44:21;;;;;;;;;;;20.20;99.90;;;;;;5030641;28;19979;-76
2023/06/07 09:46:48;;;;;;;;;;;20.30;99.90;;;;;;5007576;28;20375;-75
2023/06/07 09:49:22;;;;;;;;;;;20.40;99.90;;;;;;5010839;28;19929;-76
2023/06/07 09:51:50;;;;;;;;;;;20.50;99.90;;;;;;5011615;28;19925;-75
2023/06/07 09:54:17;;;;;;;;;;;20.60;99.90;;;;;;5028565;28;19972;-75
2023/06/07 09:56:45;;;;;;;;;;;20.60;99.90;;;;;;5006331;28;20035;-75
2023/06/07 09:59:13;;;;;;;;;;;20.60;99.90;;;;;;5031458;28;20404;-75
2023/06/07 10:01:41;;;;;;;;;;;20.70;99.90;;;;;;5008211;28;19929;-75
2023/06/07 10:04:08;;;;;;;;;;;20.70;99.90;;;;;;5011634;28;19979;-74
2023/06/07 10:06:38;;;;;;;;;;;20.90;99.90;;;;;;5023612;28;19929;-75
2023/06/07 10:09:05;;;;;;;;;;;21.20;99.90;;;;;;5009559;28;19933;-74
2023/06/07 10:11:33;;;;;;;;;;;21.10;99.90;;;;;;5026270;28;19929;-75
2023/06/07 10:14:05;;;;;;;;;;;21.30;99.90;;;;;;5011241;28;19932;-74
2023/06/07 10:16:34;;;;;;;;;;;21.40;99.90;;;;;;5022641;28;19925;-75
2023/06/07 10:19:04;;;;;;;;;;;21.20;99.90;;;;;;5013592;28;19960;-74
2023/06/07 10:21:34;;;;;;;;;;;21.20;99.90;;;;;;5004517;28;19932;-75
2023/06/07 10:24:05;;;;;;;;;;;21.10;99.90;;;;;;5006786;28;19932;-74
2023/06/07 10:26:35;;;;;;;;;;;20.80;99.90;;;;;;5009463;28;19929;-75
2023/06/07 10:29:07;;;;;;;;;;;20.70;99.90;;;;;;5035132;28;19932;-74
2023/06/07 10:31:37;;;;;;;;;;;20.70;99.90;;;;;;5018235;28;19924;-74
2023/06/07 10:34:07;;;;;;;;;;;20.70;99.90;;;;;;5013499;28;19931;-74
2023/06/07 10:36:36;;;;;;;;;;;20.50;99.90;;;;;;5020785;28;19925;-74
2023/06/07 10:39:03;;;;;;;;;;;20.20;99.90;;;;;;5024803;28;19925;-75
2023/06/07 10:41:30;;;;;;;;;;;19.90;99.90;;;;;;5015580;28;19932;-75
2023/06/07 10:43:57;;;;;;;;;;;19.40;99.90;;;;;;5013885;28;19929;-75
2023/06/07 10:46:27;;;;;;;;;;;19.30;99.90;;;;;;5022417;28;19925;-74
2023/06/07 10:48:54;;;;;;;;;;;19.10;99.90;;;;;;5026082;28;19929;-75
2023/06/07 10:51:36;;;;;;;;;;;19.00;99.90;;;;;;5021101;28;19971;-74
2023/06/07 10:54:03;;;;;;;;;;;19.00;99.90;;;;;;5030125;28;19925;-75
2023/06/07 10:56:30;;;;;;;;;;;18.90;99.90;;;;;;5012533;28;19932;-74
2023/06/07 10:58:59;;;;;;;;;;;18.70;99.90;;;;;;5006247;28;19925;-74
2023/06/07 11:01:27;;;;;;;;;;;18.60;99.90;;;;;;5017701;28;19935;-75
2023/06/07 11:03:54;;;;;;;;;;;18.50;99.90;;;;;;5017239;28;19932;-75
2023/06/07 11:06:21;;;;;;;;;;;18.30;99.90;;;;;;5011799;28;19975;-73
2023/06/07 11:08:48;;;;;;;;;;;18.20;99.90;;;;;;5016674;28;19925;-75
2023/06/07 11:11:48;;;;;;;;;;;18.10;99.90;;;;;;5014649;28;19925;-75
2023/06/07 11:14:15;;;;;;;;;;;18.00;99.90;;;;;;5014089;28;19932;-74
2023/06/07 11:16:43;;;;;;;;;;;17.90;99.90;;;;;;5034504;28;19925;-75
2023/06/07 11:19:19;;;;;;;;;;;17.90;99.90;;;;;;5038348;28;19929;-74
2023/06/07 11:22:01;;;;;;;;;;;17.90;99.90;;;;;;5018766;28;19931;-75
2023/06/07 11:24:28;;;;;;;;;;;18.00;99.90;;;;;;5023319;28;19936;-75
2023/06/07 11:26:55;;;;;;;;;;;18.10;99.90;;;;;;5013459;28;19933;-74
2023/06/07 11:29:22;;;;;;;;;;;18.20;99.90;;;;;;5031683;28;19925;-74
2023/06/07 11:31:57;;;;;;;;;;;18.20;99.90;;;;;;5018225;28;19925;-74
2023/06/07 11:34:25;;;;;;;;;;;18.30;99.90;;;;;;5017676;28;20008;-74
2023/06/07 11:37:05;;;;;;;;;;;18.30;99.90;;;;;;5032509;28;19972;-75
2023/06/07 11:39:36;;;;;;;;;;;18.40;99.90;;;;;;5014951;28;19929;-75
2023/06/07 11:42:03;;;;;;;;;;;18.40;99.90;;;;;;5029707;28;19925;-75
2023/06/07 11:44:30;;;;;;;;;;;18.60;99.90;;;;;;5019184;28;19936;-74
2023/06/07 11:47:00;;;;;;;;;;;18.60;99.90;;;;;;5020424;28;20002;-74
2023/06/07 11:49:28;;;;;;;;;;;18.50;99.90;;;;;;5017572;28;19940;-74
2023/06/07 11:51:57;;;;;;;;;;;18.20;99.90;;;;;;5019938;28;19925;-74
2023/06/07 11:54:26;;;;;;;;;;;18.40;99.90;;;;;;5012767;28;19952;-75
2023/06/07 11:56:53;;;;;;;;;;;18.70;99.90;;;;;;5019403;28;19948;-75
2023/06/07 11:59:21;;;;;;;;;;;18.60;99.90;;;;;;5010828;28;19925;-75
2023/06/07 12:01:51;;;;;;;;;;;18.60;99.90;;;;;;5014445;28;19929;-75
2023/06/07 12:04:20;;;;;;;;;;;18.80;99.90;;;;;;5003812;28;19932;-75
2023/06/07 12:06:48;;;;;;;;;;;19.40;99.90;;;;;;5007460;28;19925;-75
2023/06/07 12:09:16;;;;;;;;;;;20.10;99.90;;;;;;5017980;28;19925;-75
2023/06/07 12:11:45;;;;;;;;;;;20.70;99.90;;;;;;5027793;28;19960;-75
2023/06/07 12:14:12;;;;;;;;;;;20.70;99.90;;;;;;5016869;28;19925;-75
2023/06/07 12:16:39;;;;;;;;;;;21.10;99.90;;;;;;5001803;28;20007;-75
2023/06/07 12:19:06;;;;;;;;;;;20.60;99.90;;;;;;5015032;28;19943;-75
2023/06/07 12:21:36;;;;;;;;;;;20.40;99.90;;;;;;5028750;28;20468;-75
2023/06/07 12:24:03;;;;;;;;;;;20.30;99.90;;;;;;5013453;28;19925;-75
2023/06/07 12:26:30;;;;;;;;;;;20.50;99.90;;;;;;5015086;28;19925;-75
2023/06/07 12:29:01;;;;;;;;;;;20.60;99.90;;;;;;5011526;28;19985;-75
2023/06/07 12:31:28;;;;;;;;;;;20.40;99.90;;;;;;5014029;28;19947;-75
2023/06/07 12:33:57;;;;;;;;;;;20.70;99.90;;;;;;5013264;28;20020;-75
2023/06/07 12:36:27;;;;;;;;;;;20.80;99.90;;;;;;5007206;28;19986;-75
2023/06/07 12:38:55;;;;;;;;;;;20.70;99.90;;;;;;5009716;28;19925;-75
2023/06/07 12:41:27;;;;;;;;;;;20.60;99.90;;;;;;5007709;28;19932;-75
2023/06/07 12:43:55;;;;;;;;;;;20.50;99.90;;;;;;5019846;28;19933;-75
2023/06/07 12:46:22;;;;;;;;;;;20.50;99.90;;;;;;4999681;28;20351;-75
2023/06/07 12:48:49;;;;;;;;;;;20.50;99.90;;;;;;5008397;28;20020;-75
2023/06/07 12:51:16;;;;;;;;;;;20.40;99.90;;;;;;5011788;28;19979;-75
2023/06/07 12:53:43;;;;;;;;;;;20.70;99.90;;;;;;5014147;28;19964;-75
2023/06/07 12:56:11;;;;;;;;;;;21.00;99.90;;;;;;5007916;28;19929;-75
2023/06/07 12:58:38;;;;;;;;;;;21.60;99.90;;;;;;5006474;28;19933;-75
2023/06/07 13:01:05;;;;;;;;;;;22.70;99.90;;;;;;5011348;28;19996;-75
2023/06/07 13:03:32;;;;;;;;;;;23.90;99.90;;;;;;5014297;28;20028;-75
2023/06/07 13:05:59;;;;;;;;;;;24.40;99.90;;;;;;5001334;28;19925;-75
2023/06/07 13:08:26;;;;;;;;;;;25.40;99.90;;;;;;5013764;28;19936;-76
2023/06/07 13:10:54;;;;;;;;;;;26.20;99.90;;;;;;5008923;28;20397;-75
2023/06/07 13:13:22;;;;;;;;;;;27.20;99.90;;;;;;5005655;28;20411;-76
2023/06/07 13:15:49;;;;;;;;;;;27.90;99.90;;;;;;5006241;28;19933;-75
2023/06/07 13:18:15;;;;;;;;;;;27.60;99.90;;;;;;5004045;28;19964;-75
2023/06/07 13:20:42;;;;;;;;;;;26.90;99.90;;;;;;5005715;28;19925;-76
2023/06/07 13:23:09;;;;;;;;;;;27.20;99.90;;;;;;5012508;28;20285;-75
2023/06/07 13:25:36;;;;;;;;;;;28.10;99.90;;;;;;5009113;28;19929;-75
2023/06/07 13:28:03;;;;;;;;;;;28.00;99.90;;;;;;5011794;28;19925;-76
2023/06/07 13:30:32;;;;;;;;;;;28.00;99.90;;;;;;4999960;28;19925;-75
2023/06/07 13:32:59;;;;;;;;;;;27.80;99.90;;;;;;5006861;28;19947;-75
2023/06/07 13:35:28;;;;;;;;;;;27.60;99.90;;;;;;5012306;28;20327;-75
2023/06/07 13:37:55;;;;;;;;;;;26.80;99.90;;;;;;5026431;28;19925;-75
2023/06/07 13:40:22;;;;;;;;;;;26.60;99.90;;;;;;5011481;28;19925;-75
2023/06/07 13:42:50;;;;;;;;;;;25.90;99.90;;;;;;5003254;28;19925;-75
2023/06/07 13:45:18;;;;;;;;;;;26.00;99.90;;;;;;5024476;28;19935;-75
2023/06/07 13:47:46;;;;;;;;;;;26.90;99.90;;;;;;5009714;28;20365;-75
2023/06/07 13:50:13;;;;;;;;;;;27.90;99.90;;;;;;5006428;28;19975;-75
2023/06/07 13:52:40;;;;;;;;;;;28.60;99.90;;;;;;5010043;28;20025;-76
2023/06/07 13:55:08;;;;;;;;;;;28.70;99.90;;;;;;5009927;28;19932;-76
2023/06/07 13:57:36;;;;;;;;;;;29.30;99.90;;;;;;5013182;28;19925;-76
2023/06/07 14:00:03;;;;;;;;;;;29.60;99.90;;;;;;4997747;28;20008;-75
2023/06/07 14:02:38;;;;;;;;;;;28.50;99.90;;;;;;5021500;28;19929;-76
2023/06/07 14:05:07;;;;;;;;;;;28.30;99.90;;;;;;5007627;28;19961;-75
2023/06/07 14:07:34;;;;;;;;;;;28.40;99.90;;;;;;5007622;28;20023;-76
2023/06/07 14:10:01;;;;;;;;;;;28.70;99.90;;;;;;5007945;28;19952;-76
2023/06/07 14:12:28;;;;;;;;;;;28.50;99.90;;;;;;5027221;28;19972;-75
2023/06/07 14:14:55;;;;;;;;;;;27.60;99.90;;;;;;5006693;28;20404;-75
2023/06/07 14:17:22;;;;;;;;;;;26.80;99.90;;;;;;5003532;28;19957;-75
2023/06/07 14:19:49;;;;;;;;;;;26.30;99.90;;;;;;5027187;28;20338;-75
2023/06/07 14:22:17;;;;;;;;;;;26.60;99.90;;;;;;5005022;28;19926;-75